sensor_id;sensor_type;location;lat;lon;timestamp;temperature;humidity
24011;DHT22;12217;50.792;4.372;2024-01-27T00:01:50;7.10;99.90
24011;DHT22;12217;50.792;4.372;2024-01-27T00:04:16;7.10;99.90
24011;DHT22;12217;50.792;4.372;2024-01-27T00:06:41;7.10;99.90
24011;DHT22;12217;50.792;4.372;2024-01-27T00:09:07;7.10;99.90
24011;DHT22;12217;50.792;4.372;2024-01-27T00:11:33;7.00;99.90
24011;DHT22;12217;50.792;4.372;2024-01-27T00:13:58;7.00;99.90
24011;DHT22;12217;50.792;4.372;2024-01-27T00:16:27;6.90;99.90
24011;DHT22;12217;50.792;4.372;2024-01-27T00:18:53;7.00;99.90
24011;DHT22;12217;50.792;4.372;2024-01-27T00:21:18;7.00;99.90
24011;DHT22;12217;50.792;4.372;2024-01-27T00:23:44;7.00;99.90
24011;DHT22;12217;50.792;4.372;2024-01-27T00:26:10;7.00;99.90
24011;DHT22;12217;50.792;4.372;2024-01-27T00:28:36;6.90;99.90
24011;DHT22;12217;50.792;4.372;2024-01-27T00:31:02;6.90;99.90
24011;DHT22;12217;50.792;4.372;2024-01-27T00:33:28;7.00;99.90
24011;DHT22;12217;50.792;4.372;2024-01-27T00:35:53;7.00;99.90
24011;DHT22;12217;50.792;4.372;2024-01-27T00:38:19;7.00;99.90
24011;DHT22;12217;50.792;4.372;2024-01-27T00:40:45;7.00;99.90
24011;DHT22;12217;50.792;4.372;2024-01-27T00:43:10;7.00;99.90
24011;DHT22;12217;50.792;4.372;2024-01-27T00:45:36;7.00;99.90
24011;DHT22;12217;50.792;4.372;2024-01-27T00:48:01;7.10;99.90
24011;DHT22;12217;50.792;4.372;2024-01-27T00:50:27;7.00;99.90
24011;DHT22;12217;50.792;4.372;2024-01-27T00:52:53;6.90;99.90
24011;DHT22;12217;50.792;4.372;2024-01-27T00:55:19;7.10;99.90
24011;DHT22;12217;50.792;4.372;2024-01-27T00:57:44;7.00;99.90
24011;DHT22;12217;50.792;4.372;2024-01-27T01:00:10;7.00;99.90
24011;DHT22;12217;50.792;4.372;2024-01-27T01:02:37;7.00;99.90
24011;DHT22;12217;50.792;4.372;2024-01-27T01:05:03;7.00;99.90
24011;DHT22;12217;50.792;4.372;2024-01-27T01:07:32;7.00;99.90
24011;DHT22;12217;50.792;4.372;2024-01-27T01:09:58;7.00;99.90
24011;DHT22;12217;50.792;4.372;2024-01-27T01:12:23;7.00;99.90
24011;DHT22;12217;50.792;4.372;2024-01-27T01:14:51;6.90;99.90
24011;DHT22;12217;50.792;4.372;2024-01-27T01:17:16;6.90;99.90
24011;DHT22;12217;50.792;4.372;2024-01-27T01:19:42;6.90;99.90
24011;DHT22;12217;50.792;4.372;2024-01-27T01:22:07;6.90;99.90
24011;DHT22;12217;50.792;4.372;2024-01-27T01:24:33;7.00;99.90
24011;DHT22;12217;50.792;4.372;2024-01-27T01:26:59;7.00;99.90
24011;DHT22;12217;50.792;4.372;2024-01-27T01:29:25;6.90;99.90
24011;DHT22;12217;50.792;4.372;2024-01-27T01:31:51;6.90;99.90
24011;DHT22;12217;50.792;4.372;2024-01-27T01:34:17;6.80;99.90
24011;DHT22;12217;50.792;4.372;2024-01-27T01:36:43;6.70;99.90
24011;DHT22;12217;50.792;4.372;2024-01-27T01:39:11;6.70;99.90
24011;DHT22;12217;50.792;4.372;2024-01-27T01:41:36;6.70;99.90
24011;DHT22;12217;50.792;4.372;2024-01-27T01:44:02;6.60;99.90
24011;DHT22;12217;50.792;4.372;2024-01-27T01:46:28;6.70;99.90
24011;DHT22;12217;50.792;4.372;2024-01-27T01:48:54;6.70;99.90
24011;DHT22;12217;50.792;4.372;2024-01-27T01:51:20;6.70;99.90
24011;DHT22;12217;50.792;4.372;2024-01-27T01:53:48;6.60;99.90
24011;DHT22;12217;50.792;4.372;2024-01-27T01:56:17;6.70;99.90
24011;DHT22;12217;50.792;4.372;2024-01-27T01:58:43;6.60;99.90
24011;DHT22;12217;50.792;4.372;2024-01-27T02:01:09;6.70;99.90
24011;DHT22;12217;50.792;4.372;2024-01-27T02:03:35;6.70;99.90
24011;DHT22;12217;50.792;4.372;2024-01-27T02:06:01;6.60;99.90
24011;DHT22;12217;50.792;4.372;2024-01-27T02:08:26;6.50;99.90
24011;DHT22;12217;50.792;4.372;2024-01-27T02:10:52;6.50;99.90
24011;DHT22;12217;50.792;4.372;2024-01-27T02:13:19;6.40;99.90
24011;DHT22;12217;50.792;4.372;2024-01-27T02:15:45;6.40;99.90
24011;DHT22;12217;50.792;4.372;2024-01-27T02:18:11;6.40;99.90
24011;DHT22;12217;50.792;4.372;2024-01-27T02:20:36;6.50;99.90
24011;DHT22;12217;50.792;4.372;2024-01-27T02:23:05;6.50;99.90
24011;DHT22;12217;50.792;4.372;2024-01-27T02:25:31;6.60;99.90
24011;DHT22;12217;50.792;4.372;2024-01-27T02:27:57;6.50;99.90
24011;DHT22;12217;50.792;4.372;2024-01-27T02:30:23;6.50;99.90
24011;DHT22;12217;50.792;4.372;2024-01-27T02:32:49;6.50;99.90
24011;DHT22;12217;50.792;4.372;2024-01-27T02:35:15;6.50;99.90
24011;DHT22;12217;50.792;4.372;2024-01-27T02:37:41;6.50;99.90
24011;DHT22;12217;50.792;4.372;2024-01-27T02:40:08;6.40;99.90
24011;DHT22;12217;50.792;4.372;2024-01-27T02:42:35;6.40;99.90
24011;DHT22;12217;50.792;4.372;2024-01-27T02:45:01;6.40;99.90
24011;DHT22;12217;50.792;4.372;2024-01-27T02:47:26;6.30;99.90
24011;DHT22;12217;50.792;4.372;2024-01-27T02:49:52;6.50;99.90
24011;DHT22;12217;50.792;4.372;2024-01-27T02:52:17;6.50;99.90
24011;DHT22;12217;50.792;4.372;2024-01-27T02:54:43;6.30;99.90
24011;DHT22;12217;50.792;4.372;2024-01-27T02:57:09;6.20;99.90
24011;DHT22;12217;50.792;4.372;2024-01-27T02:59:35;6.20;99.90
24011;DHT22;12217;50.792;4.372;2024-01-27T03:02:01;6.20;99.90
24011;DHT22;12217;50.792;4.372;2024-01-27T03:04:26;6.20;99.90
24011;DHT22;12217;50.792;4.372;2024-01-27T03:06:52;6.30;99.90
24011;DHT22;12217;50.792;4.372;2024-01-27T03:09:18;6.30;99.90
24011;DHT22;12217;50.792;4.372;2024-01-27T03:11:43;6.20;99.90
24011;DHT22;12217;50.792;4.372;2024-01-27T03:14:09;6.10;99.90
24011;DHT22;12217;50.792;4.372;2024-01-27T03:16:36;6.20;99.90
24011;DHT22;12217;50.792;4.372;2024-01-27T03:19:01;6.10;99.90
24011;DHT22;12217;50.792;4.372;2024-01-27T03:21:27;6.20;99.90
24011;DHT22;12217;50.792;4.372;2024-01-27T03:23:53;6.20;99.90
24011;DHT22;12217;50.792;4.372;2024-01-27T03:26:18;6.20;99.90
24011;DHT22;12217;50.792;4.372;2024-01-27T03:28:44;6.20;99.90
24011;DHT22;12217;50.792;4.372;2024-01-27T03:31:09;6.20;99.90
24011;DHT22;12217;50.792;4.372;2024-01-27T03:33:35;6.20;99.90
24011;DHT22;12217;50.792;4.372;2024-01-27T03:36:00;6.10;99.90
24011;DHT22;12217;50.792;4.372;2024-01-27T03:38:26;6.10;99.90
24011;DHT22;12217;50.792;4.372;2024-01-27T03:40:52;6.10;99.90
24011;DHT22;12217;50.792;4.372;2024-01-27T03:43:17;6.20;99.90
24011;DHT22;12217;50.792;4.372;2024-01-27T03:45:43;6.30;99.90
24011;DHT22;12217;50.792;4.372;2024-01-27T03:48:08;6.30;99.90
24011;DHT22;12217;50.792;4.372;2024-01-27T03:50:34;6.10;99.90
24011;DHT22;12217;50.792;4.372;2024-01-27T03:53:00;6.00;99.90
24011;DHT22;12217;50.792;4.372;2024-01-27T03:55:25;6.00;99.90
24011;DHT22;12217;50.792;4.372;2024-01-27T03:57:51;6.10;99.90
24011;DHT22;12217;50.792;4.372;2024-01-27T04:00:17;6.10;99.90
24011;DHT22;12217;50.792;4.372;2024-01-27T04:02:42;6.10;99.90
24011;DHT22;12217;50.792;4.372;2024-01-27T04:05:08;6.10;99.90
24011;DHT22;12217;50.792;4.372;2024-01-27T04:07:34;6.00;99.90
24011;DHT22;12217;50.792;4.372;2024-01-27T04:10:01;6.00;99.90
24011;DHT22;12217;50.792;4.372;2024-01-27T04:12:27;6.00;99.90
24011;DHT22;12217;50.792;4.372;2024-01-27T04:14:52;6.00;99.90
24011;DHT22;12217;50.792;4.372;2024-01-27T04:17:18;6.00;99.90
24011;DHT22;12217;50.792;4.372;2024-01-27T04:19:43;6.00;99.90
24011;DHT22;12217;50.792;4.372;2024-01-27T04:22:09;6.00;99.90
24011;DHT22;12217;50.792;4.372;2024-01-27T04:24:34;6.00;99.90
24011;DHT22;12217;50.792;4.372;2024-01-27T04:27:00;6.00;99.90
24011;DHT22;12217;50.792;4.372;2024-01-27T04:29:27;6.00;99.90
24011;DHT22;12217;50.792;4.372;2024-01-27T04:31:53;6.00;99.90
24011;DHT22;12217;50.792;4.372;2024-01-27T04:34:18;6.00;99.90
24011;DHT22;12217;50.792;4.372;2024-01-27T04:36:44;6.00;99.90
24011;DHT22;12217;50.792;4.372;2024-01-27T04:39:10;6.10;99.90
24011;DHT22;12217;50.792;4.372;2024-01-27T04:41:41;6.00;99.90
24011;DHT22;12217;50.792;4.372;2024-01-27T04:44:08;6.00;99.90
24011;DHT22;12217;50.792;4.372;2024-01-27T04:46:33;5.90;99.90
24011;DHT22;12217;50.792;4.372;2024-01-27T04:48:59;5.90;99.90
24011;DHT22;12217;50.792;4.372;2024-01-27T04:51:24;5.90;99.90
24011;DHT22;12217;50.792;4.372;2024-01-27T04:53:50;5.80;99.90
24011;DHT22;12217;50.792;4.372;2024-01-27T04:56:16;5.80;99.90
24011;DHT22;12217;50.792;4.372;2024-01-27T04:58:41;5.90;99.90
24011;DHT22;12217;50.792;4.372;2024-01-27T05:01:07;5.90;99.90
24011;DHT22;12217;50.792;4.372;2024-01-27T05:03:33;5.90;99.90
24011;DHT22;12217;50.792;4.372;2024-01-27T05:05:59;5.90;99.90
24011;DHT22;12217;50.792;4.372;2024-01-27T05:08:25;5.90;99.90
24011;DHT22;12217;50.792;4.372;2024-01-27T05:10:51;5.90;99.90
24011;DHT22;12217;50.792;4.372;2024-01-27T05:13:16;5.90;99.90
24011;DHT22;12217;50.792;4.372;2024-01-27T05:15:42;5.90;99.90
24011;DHT22;12217;50.792;4.372;2024-01-27T05:18:08;5.90;99.90
24011;DHT22;12217;50.792;4.372;2024-01-27T05:20:33;5.80;99.90
24011;DHT22;12217;50.792;4.372;2024-01-27T05:22:59;5.70;99.90
24011;DHT22;12217;50.792;4.372;2024-01-27T05:25:24;5.60;99.90
24011;DHT22;12217;50.792;4.372;2024-01-27T05:27:50;5.60;99.90
24011;DHT22;12217;50.792;4.372;2024-01-27T05:30:16;5.50;99.90
24011;DHT22;12217;50.792;4.372;2024-01-27T05:32:41;5.50;99.90
24011;DHT22;12217;50.792;4.372;2024-01-27T05:35:07;5.50;99.90
24011;DHT22;12217;50.792;4.372;2024-01-27T05:37:33;5.50;99.90
24011;DHT22;12217;50.792;4.372;2024-01-27T05:39:59;5.50;99.90
24011;DHT22;12217;50.792;4.372;2024-01-27T05:42:24;5.50;99.90
24011;DHT22;12217;50.792;4.372;2024-01-27T05:44:50;5.50;99.90
24011;DHT22;12217;50.792;4.372;2024-01-27T05:47:15;5.60;99.90
24011;DHT22;12217;50.792;4.372;2024-01-27T05:49:41;5.60;99.90
24011;DHT22;12217;50.792;4.372;2024-01-27T05:52:07;5.60;99.90
24011;DHT22;12217;50.792;4.372;2024-01-27T05:54:32;5.60;99.90
24011;DHT22;12217;50.792;4.372;2024-01-27T05:56:58;5.70;99.90
24011;DHT22;12217;50.792;4.372;2024-01-27T05:59:24;5.60;99.90
24011;DHT22;12217;50.792;4.372;2024-01-27T06:01:49;5.50;99.90
24011;DHT22;12217;50.792;4.372;2024-01-27T06:04:15;5.60;99.90
24011;DHT22;12217;50.792;4.372;2024-01-27T06:06:41;5.60;99.90
24011;DHT22;12217;50.792;4.372;2024-01-27T06:09:09;5.50;99.90
24011;DHT22;12217;50.792;4.372;2024-01-27T06:11:36;5.50;99.90
24011;DHT22;12217;50.792;4.372;2024-01-27T06:14:02;5.50;99.90
24011;DHT22;12217;50.792;4.372;2024-01-27T06:16:28;5.50;99.90
24011;DHT22;12217;50.792;4.372;2024-01-27T06:18:53;5.60;99.90
24011;DHT22;12217;50.792;4.372;2024-01-27T06:21:20;5.40;99.90
24011;DHT22;12217;50.792;4.372;2024-01-27T06:23:46;5.40;99.90
24011;DHT22;12217;50.792;4.372;2024-01-27T06:26:13;5.40;99.90
24011;DHT22;12217;50.792;4.372;2024-01-27T06:28:38;5.40;99.90
24011;DHT22;12217;50.792;4.372;2024-01-27T06:31:04;5.30;99.90
24011;DHT22;12217;50.792;4.372;2024-01-27T06:33:30;5.30;99.90
24011;DHT22;12217;50.792;4.372;2024-01-27T06:35:56;5.20;99.90
24011;DHT22;12217;50.792;4.372;2024-01-27T06:38:21;5.20;99.90
24011;DHT22;12217;50.792;4.372;2024-01-27T06:40:47;5.10;99.90
24011;DHT22;12217;50.792;4.372;2024-01-27T06:43:13;5.10;99.90
24011;DHT22;12217;50.792;4.372;2024-01-27T06:45:39;5.20;99.90
24011;DHT22;12217;50.792;4.372;2024-01-27T06:48:06;5.30;99.90
24011;DHT22;12217;50.792;4.372;2024-01-27T06:50:32;5.30;99.90
24011;DHT22;12217;50.792;4.372;2024-01-27T06:52:58;5.30;99.90
24011;DHT22;12217;50.792;4.372;2024-01-27T06:55:23;5.30;99.90
24011;DHT22;12217;50.792;4.372;2024-01-27T06:57:49;5.30;99.90
24011;DHT22;12217;50.792;4.372;2024-01-27T07:00:15;5.40;99.90
24011;DHT22;12217;50.792;4.372;2024-01-27T07:02:41;5.40;99.90
24011;DHT22;12217;50.792;4.372;2024-01-27T07:05:08;5.30;99.90
24011;DHT22;12217;50.792;4.372;2024-01-27T07:07:33;5.20;99.90
24011;DHT22;12217;50.792;4.372;2024-01-27T07:09:59;5.20;99.90
24011;DHT22;12217;50.792;4.372;2024-01-27T07:12:25;5.10;99.90
24011;DHT22;12217;50.792;4.372;2024-01-27T07:14:51;5.10;99.90
24011;DHT22;12217;50.792;4.372;2024-01-27T07:17:17;5.00;99.90
24011;DHT22;12217;50.792;4.372;2024-01-27T07:19:43;5.00;99.90
24011;DHT22;12217;50.792;4.372;2024-01-27T07:22:09;5.00;99.90
24011;DHT22;12217;50.792;4.372;2024-01-27T07:24:35;5.00;99.90
24011;DHT22;12217;50.792;4.372;2024-01-27T07:27:02;5.00;99.90
24011;DHT22;12217;50.792;4.372;2024-01-27T07:29:29;5.10;99.90
24011;DHT22;12217;50.792;4.372;2024-01-27T07:31:55;5.20;99.90
24011;DHT22;12217;50.792;4.372;2024-01-27T07:34:21;5.30;99.90
24011;DHT22;12217;50.792;4.372;2024-01-27T07:36:47;5.30;99.90
24011;DHT22;12217;50.792;4.372;2024-01-27T07:39:14;5.30;99.90
24011;DHT22;12217;50.792;4.372;2024-01-27T07:41:40;5.30;99.90
24011;DHT22;12217;50.792;4.372;2024-01-27T07:44:10;5.20;99.90
24011;DHT22;12217;50.792;4.372;2024-01-27T07:46:40;5.10;99.90
24011;DHT22;12217;50.792;4.372;2024-01-27T07:49:06;5.20;99.90
24011;DHT22;12217;50.792;4.372;2024-01-27T07:51:33;5.20;99.90
24011;DHT22;12217;50.792;4.372;2024-01-27T07:53:59;5.30;99.90
24011;DHT22;12217;50.792;4.372;2024-01-27T07:56:25;5.20;99.90
24011;DHT22;12217;50.792;4.372;2024-01-27T07:58:51;5.20;99.90
24011;DHT22;12217;50.792;4.372;2024-01-27T08:01:17;5.30;99.90
24011;DHT22;12217;50.792;4.372;2024-01-27T08:03:43;5.30;99.90
24011;DHT22;12217;50.792;4.372;2024-01-27T08:06:17;5.40;99.90
24011;DHT22;12217;50.792;4.372;2024-01-27T08:08:47;5.40;99.90
24011;DHT22;12217;50.792;4.372;2024-01-27T08:11:17;5.50;99.90
24011;DHT22;12217;50.792;4.372;2024-01-27T08:13:42;5.40;99.90
24011;DHT22;12217;50.792;4.372;2024-01-27T08:16:08;5.40;99.90
24011;DHT22;12217;50.792;4.372;2024-01-27T08:18:42;5.30;99.90
24011;DHT22;12217;50.792;4.372;2024-01-27T08:21:10;5.30;99.90
24011;DHT22;12217;50.792;4.372;2024-01-27T08:23:35;5.40;99.90
24011;DHT22;12217;50.792;4.372;2024-01-27T08:26:01;5.50;99.90
24011;DHT22;12217;50.792;4.372;2024-01-27T08:28:27;5.50;99.90
24011;DHT22;12217;50.792;4.372;2024-01-27T08:30:52;5.50;99.90
24011;DHT22;12217;50.792;4.372;2024-01-27T08:33:18;5.50;99.90
24011;DHT22;12217;50.792;4.372;2024-01-27T08:35:46;5.50;99.90
24011;DHT22;12217;50.792;4.372;2024-01-27T08:38:13;5.50;99.90
24011;DHT22;12217;50.792;4.372;2024-01-27T08:40:39;5.50;99.90
24011;DHT22;12217;50.792;4.372;2024-01-27T08:43:04;5.50;99.90
24011;DHT22;12217;50.792;4.372;2024-01-27T08:45:31;5.50;99.90
24011;DHT22;12217;50.792;4.372;2024-01-27T08:47:58;5.60;99.90
24011;DHT22;12217;50.792;4.372;2024-01-27T08:50:23;5.60;99.90
24011;DHT22;12217;50.792;4.372;2024-01-27T08:52:49;5.70;99.90
24011;DHT22;12217;50.792;4.372;2024-01-27T08:55:15;5.80;99.90
24011;DHT22;12217;50.792;4.372;2024-01-27T08:57:44;5.80;99.90
24011;DHT22;12217;50.792;4.372;2024-01-27T09:00:12;6.00;99.90
24011;DHT22;12217;50.792;4.372;2024-01-27T09:02:38;6.00;99.90
24011;DHT22;12217;50.792;4.372;2024-01-27T09:05:04;6.10;99.90
24011;DHT22;12217;50.792;4.372;2024-01-27T09:07:31;6.30;99.90
24011;DHT22;12217;50.792;4.372;2024-01-27T09:09:56;6.40;99.90
24011;DHT22;12217;50.792;4.372;2024-01-27T09:12:22;6.50;99.90
24011;DHT22;12217;50.792;4.372;2024-01-27T09:14:48;6.50;99.90
24011;DHT22;12217;50.792;4.372;2024-01-27T09:17:13;6.60;99.90
24011;DHT22;12217;50.792;4.372;2024-01-27T09:19:39;6.50;99.90
24011;DHT22;12217;50.792;4.372;2024-01-27T09:22:04;6.50;99.90
24011;DHT22;12217;50.792;4.372;2024-01-27T09:24:30;6.60;99.90
24011;DHT22;12217;50.792;4.372;2024-01-27T09:26:56;6.70;99.90
24011;DHT22;12217;50.792;4.372;2024-01-27T09:29:21;6.90;99.90
24011;DHT22;12217;50.792;4.372;2024-01-27T09:31:47;6.80;99.90
24011;DHT22;12217;50.792;4.372;2024-01-27T09:34:13;6.90;99.90
24011;DHT22;12217;50.792;4.372;2024-01-27T09:36:38;6.80;99.90
24011;DHT22;12217;50.792;4.372;2024-01-27T09:39:04;6.80;99.90
24011;DHT22;12217;50.792;4.372;2024-01-27T09:41:31;6.70;99.90
24011;DHT22;12217;50.792;4.372;2024-01-27T09:44:01;6.40;99.90
24011;DHT22;12217;50.792;4.372;2024-01-27T09:46:31;6.50;99.90
24011;DHT22;12217;50.792;4.372;2024-01-27T09:48:57;6.50;99.90
24011;DHT22;12217;50.792;4.372;2024-01-27T09:51:23;6.70;99.90
24011;DHT22;12217;50.792;4.372;2024-01-27T09:53:49;6.90;99.90
24011;DHT22;12217;50.792;4.372;2024-01-27T09:56:17;7.10;99.90
24011;DHT22;12217;50.792;4.372;2024-01-27T09:58:44;7.10;99.90
24011;DHT22;12217;50.792;4.372;2024-01-27T10:01:11;7.30;99.90
24011;DHT22;12217;50.792;4.372;2024-01-27T10:03:40;7.30;99.90
24011;DHT22;12217;50.792;4.372;2024-01-27T10:06:08;7.30;99.90
24011;DHT22;12217;50.792;4.372;2024-01-27T10:08:34;7.30;99.90
24011;DHT22;12217;50.792;4.372;2024-01-27T10:11:06;7.20;99.90
24011;DHT22;12217;50.792;4.372;2024-01-27T10:13:33;7.40;99.90
24011;DHT22;12217;50.792;4.372;2024-01-27T10:16:07;7.40;99.90
24011;DHT22;12217;50.792;4.372;2024-01-27T10:18:37;7.80;99.90
24011;DHT22;12217;50.792;4.372;2024-01-27T10:21:18;7.90;99.90
24011;DHT22;12217;50.792;4.372;2024-01-27T10:23:46;8.10;99.90
24011;DHT22;12217;50.792;4.372;2024-01-27T10:26:12;8.30;99.90
24011;DHT22;12217;50.792;4.372;2024-01-27T10:28:37;8.30;99.90
24011;DHT22;12217;50.792;4.372;2024-01-27T10:31:13;8.40;99.90
24011;DHT22;12217;50.792;4.372;2024-01-27T10:33:39;8.40;99.90
24011;DHT22;12217;50.792;4.372;2024-01-27T10:36:05;8.40;99.90
24011;DHT22;12217;50.792;4.372;2024-01-27T10:38:38;8.30;99.90
24011;DHT22;12217;50.792;4.372;2024-01-27T10:41:07;8.20;99.90
24011;DHT22;12217;50.792;4.372;2024-01-27T10:43:38;8.10;99.90
24011;DHT22;12217;50.792;4.372;2024-01-27T10:46:08;8.10;99.90
24011;DHT22;12217;50.792;4.372;2024-01-27T10:48:35;8.30;99.90
24011;DHT22;12217;50.792;4.372;2024-01-27T10:51:09;8.60;99.90
24011;DHT22;12217;50.792;4.372;2024-01-27T10:53:47;8.80;99.90
24011;DHT22;12217;50.792;4.372;2024-01-27T10:56:18;8.90;99.90
24011;DHT22;12217;50.792;4.372;2024-01-27T10:58:45;9.30;99.90
24011;DHT22;12217;50.792;4.372;2024-01-27T11:01:13;10.70;99.90
24011;DHT22;12217;50.792;4.372;2024-01-27T11:03:40;11.90;99.90
24011;DHT22;12217;50.792;4.372;2024-01-27T11:06:06;13.10;99.90
24011;DHT22;12217;50.792;4.372;2024-01-27T11:08:34;14.50;99.90
24011;DHT22;12217;50.792;4.372;2024-01-27T11:11:00;14.90;99.90
24011;DHT22;12217;50.792;4.372;2024-01-27T11:13:30;15.80;99.90
24011;DHT22;12217;50.792;4.372;2024-01-27T11:15:57;17.50;97.70
24011;DHT22;12217;50.792;4.372;2024-01-27T11:18:26;18.80;91.40
24011;DHT22;12217;50.792;4.372;2024-01-27T11:20:53;17.20;90.30
24011;DHT22;12217;50.792;4.372;2024-01-27T11:23:19;17.80;90.60
24011;DHT22;12217;50.792;4.372;2024-01-27T11:25:45;18.30;86.70
24011;DHT22;12217;50.792;4.372;2024-01-27T11:28:15;19.30;80.00
24011;DHT22;12217;50.792;4.372;2024-01-27T11:30:48;20.20;75.10
24011;DHT22;12217;50.792;4.372;2024-01-27T11:33:14;19.20;75.60
24011;DHT22;12217;50.792;4.372;2024-01-27T11:35:40;19.40;75.50
24011;DHT22;12217;50.792;4.372;2024-01-27T11:38:05;20.20;71.00
24011;DHT22;12217;50.792;4.372;2024-01-27T11:40:31;20.20;68.10
24011;DHT22;12217;50.792;4.372;2024-01-27T11:42:59;17.90;69.70
24011;DHT22;12217;50.792;4.372;2024-01-27T11:45:25;17.00;76.60
24011;DHT22;12217;50.792;4.372;2024-01-27T11:47:51;17.30;77.90
24011;DHT22;12217;50.792;4.372;2024-01-27T11:50:17;16.80;76.40
24011;DHT22;12217;50.792;4.372;2024-01-27T11:52:44;15.20;80.50
24011;DHT22;12217;50.792;4.372;2024-01-27T11:55:12;13.70;90.80
24011;DHT22;12217;50.792;4.372;2024-01-27T11:57:38;13.70;92.00
24011;DHT22;12217;50.792;4.372;2024-01-27T12:00:04;14.90;90.10
24011;DHT22;12217;50.792;4.372;2024-01-27T12:05:18;15.10;89.10
24011;DHT22;12217;50.792;4.372;2024-01-27T12:07:44;16.30;83.60
24011;DHT22;12217;50.792;4.372;2024-01-27T12:10:10;16.40;83.70
24011;DHT22;12217;50.792;4.372;2024-01-27T12:12:35;16.40;81.20
24011;DHT22;12217;50.792;4.372;2024-01-27T12:15:01;16.40;79.10
24011;DHT22;12217;50.792;4.372;2024-01-27T12:17:33;16.10;80.10
24011;DHT22;12217;50.792;4.372;2024-01-27T12:20:14;15.20;82.50
24011;DHT22;12217;50.792;4.372;2024-01-27T12:22:41;15.70;85.20
24011;DHT22;12217;50.792;4.372;2024-01-27T12:25:13;17.40;80.10
24011;DHT22;12217;50.792;4.372;2024-01-27T12:27:40;19.30;73.80
24011;DHT22;12217;50.792;4.372;2024-01-27T12:30:06;20.10;68.00
24011;DHT22;12217;50.792;4.372;2024-01-27T12:32:32;19.40;63.50
24011;DHT22;12217;50.792;4.372;2024-01-27T12:34:58;19.60;64.20
24011;DHT22;12217;50.792;4.372;2024-01-27T12:37:26;19.40;61.50
24011;DHT22;12217;50.792;4.372;2024-01-27T12:39:51;19.50;62.80
24011;DHT22;12217;50.792;4.372;2024-01-27T12:42:17;19.30;62.40
24011;DHT22;12217;50.792;4.372;2024-01-27T12:44:43;20.30;60.00
24011;DHT22;12217;50.792;4.372;2024-01-27T12:47:12;21.80;57.20
24011;DHT22;12217;50.792;4.372;2024-01-27T12:49:39;21.00;56.40
24011;DHT22;12217;50.792;4.372;2024-01-27T12:52:05;21.10;56.60
24011;DHT22;12217;50.792;4.372;2024-01-27T12:54:31;21.60;55.90
24011;DHT22;12217;50.792;4.372;2024-01-27T12:56:57;21.60;54.00
24011;DHT22;12217;50.792;4.372;2024-01-27T12:59:22;21.60;54.50
24011;DHT22;12217;50.792;4.372;2024-01-27T13:01:49;21.90;52.60
24011;DHT22;12217;50.792;4.372;2024-01-27T13:04:14;21.50;53.00
24011;DHT22;12217;50.792;4.372;2024-01-27T13:06:41;22.70;51.70
24011;DHT22;12217;50.792;4.372;2024-01-27T13:09:08;21.80;51.00
24011;DHT22;12217;50.792;4.372;2024-01-27T13:11:37;21.00;51.60
24011;DHT22;12217;50.792;4.372;2024-01-27T13:14:02;19.70;53.30
24011;DHT22;12217;50.792;4.372;2024-01-27T13:16:28;19.10;54.30
24011;DHT22;12217;50.792;4.372;2024-01-27T13:18:54;18.30;55.60
24011;DHT22;12217;50.792;4.372;2024-01-27T13:21:22;18.30;57.60
24011;DHT22;12217;50.792;4.372;2024-01-27T13:23:48;19.30;55.70
24011;DHT22;12217;50.792;4.372;2024-01-27T13:26:13;19.30;55.80
24011;DHT22;12217;50.792;4.372;2024-01-27T13:31:18;19.70;55.80
24011;DHT22;12217;50.792;4.372;2024-01-27T13:33:44;20.00;56.10
24011;DHT22;12217;50.792;4.372;2024-01-27T13:36:10;20.40;55.00
24011;DHT22;12217;50.792;4.372;2024-01-27T13:38:35;20.80;53.10
24011;DHT22;12217;50.792;4.372;2024-01-27T13:41:01;20.40;52.60
24011;DHT22;12217;50.792;4.372;2024-01-27T13:43:27;19.50;55.00
24011;DHT22;12217;50.792;4.372;2024-01-27T13:45:52;20.90;53.70
24011;DHT22;12217;50.792;4.372;2024-01-27T13:48:20;21.80;51.90
24011;DHT22;12217;50.792;4.372;2024-01-27T13:50:46;23.00;50.20
24011;DHT22;12217;50.792;4.372;2024-01-27T13:53:11;24.20;48.90
24011;DHT22;12217;50.792;4.372;2024-01-27T13:55:37;23.90;47.70
24011;DHT22;12217;50.792;4.372;2024-01-27T13:58:03;24.10;47.30
24011;DHT22;12217;50.792;4.372;2024-01-27T14:00:29;24.20;47.10
24011;DHT22;12217;50.792;4.372;2024-01-27T14:02:56;23.00;46.70
24011;DHT22;12217;50.792;4.372;2024-01-27T14:05:21;22.40;47.50
24011;DHT22;12217;50.792;4.372;2024-01-27T14:07:47;21.50;49.00
24011;DHT22;12217;50.792;4.372;2024-01-27T14:10:13;21.60;49.20
24011;DHT22;12217;50.792;4.372;2024-01-27T14:12:39;20.80;50.10
24011;DHT22;12217;50.792;4.372;2024-01-27T14:15:05;21.00;50.90
24011;DHT22;12217;50.792;4.372;2024-01-27T14:17:35;21.00;50.20
24011;DHT22;12217;50.792;4.372;2024-01-27T14:20:02;19.30;53.30
24011;DHT22;12217;50.792;4.372;2024-01-27T14:22:27;18.70;53.80
24011;DHT22;12217;50.792;4.372;2024-01-27T14:24:53;18.60;54.00
24011;DHT22;12217;50.792;4.372;2024-01-27T14:27:19;18.10;55.10
24011;DHT22;12217;50.792;4.372;2024-01-27T14:29:54;18.50;55.80
24011;DHT22;12217;50.792;4.372;2024-01-27T14:32:20;18.40;54.90
24011;DHT22;12217;50.792;4.372;2024-01-27T14:34:46;18.20;55.40
24011;DHT22;12217;50.792;4.372;2024-01-27T14:37:12;17.70;57.00
24011;DHT22;12217;50.792;4.372;2024-01-27T14:39:39;16.90;58.70
24011;DHT22;12217;50.792;4.372;2024-01-27T14:42:07;16.40;60.00
24011;DHT22;12217;50.792;4.372;2024-01-27T14:44:33;15.80;62.60
24011;DHT22;12217;50.792;4.372;2024-01-27T14:46:59;15.50;64.60
24011;DHT22;12217;50.792;4.372;2024-01-27T14:49:24;15.30;67.40
24011;DHT22;12217;50.792;4.372;2024-01-27T14:51:50;15.10;69.10
24011;DHT22;12217;50.792;4.372;2024-01-27T14:54:16;14.60;69.10
24011;DHT22;12217;50.792;4.372;2024-01-27T14:56:42;14.30;72.30
24011;DHT22;12217;50.792;4.372;2024-01-27T14:59:07;14.10;75.90
24011;DHT22;12217;50.792;4.372;2024-01-27T15:01:33;14.00;77.50
24011;DHT22;12217;50.792;4.372;2024-01-27T15:03:59;13.90;79.60
24011;DHT22;12217;50.792;4.372;2024-01-27T15:06:27;13.70;80.50
24011;DHT22;12217;50.792;4.372;2024-01-27T15:08:53;13.60;83.20
24011;DHT22;12217;50.792;4.372;2024-01-27T15:11:19;13.40;84.80
24011;DHT22;12217;50.792;4.372;2024-01-27T15:13:45;13.30;84.90
24011;DHT22;12217;50.792;4.372;2024-01-27T15:16:10;13.20;87.20
24011;DHT22;12217;50.792;4.372;2024-01-27T15:18:36;13.10;89.60
24011;DHT22;12217;50.792;4.372;2024-01-27T15:21:06;13.00;89.70
24011;DHT22;12217;50.792;4.372;2024-01-27T15:23:32;13.10;90.20
24011;DHT22;12217;50.792;4.372;2024-01-27T15:25:59;13.00;90.50
24011;DHT22;12217;50.792;4.372;2024-01-27T15:28:27;12.90;91.40
24011;DHT22;12217;50.792;4.372;2024-01-27T15:30:55;12.80;91.70
24011;DHT22;12217;50.792;4.372;2024-01-27T15:33:21;12.80;92.50
24011;DHT22;12217;50.792;4.372;2024-01-27T15:35:46;12.70;92.00
24011;DHT22;12217;50.792;4.372;2024-01-27T15:38:12;12.80;92.30
24011;DHT22;12217;50.792;4.372;2024-01-27T15:40:37;12.70;92.10
24011;DHT22;12217;50.792;4.372;2024-01-27T15:43:03;12.60;93.10